Time;durP1;ratioP1;P1;durP2;ratioP2;P2;SDS_P1;SDS_P2;PMS_P1;PMS_P2;Temp;Humidity;BMP_temperature;BMP_pressure;BME280_temperature;BME280_humidity;BME280_pressure;Samples;Min_cycle;Max_cycle;Signal;HPM_P1;HPM_P2
2023/09/24 00:00:58;;;;;;;7.18;2.80;;;11.20;99.90;;;;;;5017013;28;20090;-58
2023/09/24 00:03:24;;;;;;;7.28;3.15;;;11.20;99.90;;;;;;5020921;28;20026;-60
2023/09/24 00:05:51;;;;;;;16.27;3.00;;;11.20;99.90;;;;;;5036379;28;20042;-56
2023/09/24 00:08:17;;;;;;;11.25;3.25;;;11.20;99.90;;;;;;5024400;28;20030;-52
2023/09/24 00:10:50;;;;;;;4.70;2.80;;;11.10;99.90;;;;;;5024302;28;20480;-59
2023/09/24 00:13:16;;;;;;;12.38;3.63;;;11.10;99.90;;;;;;5020150;28;20059;-57
2023/09/24 00:15:41;;;;;;;6.38;3.10;;;11.10;99.90;;;;;;5030317;28;20022;-56
2023/09/24 00:18:07;;;;;;;8.35;4.03;;;11.10;99.90;;;;;;5018899;28;20030;-58
2023/09/24 00:20:33;;;;;;;15.80;3.38;;;11.00;99.90;;;;;;5027155;28;20395;-56
2023/09/24 00:22:58;;;;;;;8.20;3.60;;;11.00;99.90;;;;;;5018948;28;20022;-58
2023/09/24 00:25:25;;;;;;;11.38;3.25;;;10.90;99.90;;;;;;5019175;28;20399;-55
2023/09/24 00:27:51;;;;;;;15.57;4.38;;;10.90;99.90;;;;;;5018129;28;20080;-57
2023/09/24 00:30:17;;;;;;;12.32;5.45;;;10.80;99.90;;;;;;5024712;28;20029;-58
2023/09/24 00:32:42;;;;;;;20.58;9.27;;;10.80;99.90;;;;;;5027628;28;20633;-56
2023/09/24 00:35:08;;;;;;;23.92;9.40;;;10.70;99.90;;;;;;5028237;28;20040;-58
2023/09/24 00:37:34;;;;;;;21.40;8.75;;;10.80;99.90;;;;;;5026302;28;20036;-57
2023/09/24 00:39:59;;;;;;;14.68;7.07;;;10.80;99.90;;;;;;5029232;28;20491;-59
2023/09/24 00:42:28;;;;;;;14.60;6.32;;;10.80;99.90;;;;;;5014336;28;20087;-56
2023/09/24 00:44:54;;;;;;;11.85;5.63;;;10.80;99.90;;;;;;5029953;28;20105;-60
2023/09/24 00:47:22;;;;;;;13.20;6.10;;;10.80;99.90;;;;;;5029399;28;20423;-60
2023/09/24 00:49:48;;;;;;;13.13;5.55;;;10.70;99.90;;;;;;5026634;28;20020;-60
2023/09/24 00:52:14;;;;;;;9.52;5.32;;;10.70;99.90;;;;;;5026059;28;20100;-61
2023/09/24 00:54:41;;;;;;;9.63;4.85;;;10.60;99.90;;;;;;5026492;28;20427;-61
2023/09/24 00:57:07;;;;;;;12.23;5.25;;;10.60;99.90;;;;;;5031377;28;20067;-61
2023/09/24 00:59:32;;;;;;;11.65;4.55;;;10.60;99.90;;;;;;5022332;28;20467;-61
2023/09/24 01:01:59;;;;;;;7.15;3.78;;;10.50;99.90;;;;;;5026985;28;20029;-61
2023/09/24 01:04:25;;;;;;;10.38;4.55;;;10.40;99.90;;;;;;5022188;28;20116;-59
2023/09/24 01:06:51;;;;;;;9.68;4.25;;;10.40;99.90;;;;;;5031537;28;20108;-56
2023/09/24 01:09:19;;;;;;;5.90;3.83;;;10.40;99.90;;;;;;5022683;28;20472;-55
2023/09/24 01:11:45;;;;;;;9.55;4.38;;;10.30;99.90;;;;;;5020793;28;20618;-60
2023/09/24 01:14:11;;;;;;;10.57;4.10;;;10.30;99.90;;;;;;5021984;28;20042;-59
2023/09/24 01:16:38;;;;;;;9.45;3.92;;;10.30;99.90;;;;;;5020798;28;20021;-60
2023/09/24 01:19:05;;;;;;;9.50;4.18;;;10.30;99.90;;;;;;5022719;28;20061;-60
2023/09/24 01:21:30;;;;;;;13.05;4.50;;;10.30;99.90;;;;;;5018685;28;20503;-61
2023/09/24 01:23:59;;;;;;;15.18;4.50;;;10.30;99.90;;;;;;5022607;28;20030;-61
2023/09/24 01:26:25;;;;;;;11.07;4.93;;;10.30;99.90;;;;;;5026486;28;20028;-59
2023/09/24 01:28:51;;;;;;;16.33;5.35;;;10.20;99.90;;;;;;5018797;28;20552;-60
2023/09/24 01:31:18;;;;;;;12.95;5.60;;;10.20;99.90;;;;;;5023771;28;20113;-61
2023/09/24 01:33:44;;;;;;;14.40;6.65;;;10.20;99.90;;;;;;5023823;28;20025;-60
2023/09/24 01:36:13;;;;;;;10.23;5.78;;;10.10;99.90;;;;;;5024522;28;20044;-61
2023/09/24 01:38:41;;;;;;;21.05;6.85;;;10.10;99.90;;;;;;5024795;28;20076;-59
2023/09/24 01:41:10;;;;;;;11.75;6.55;;;10.00;99.90;;;;;;5027172;28;20113;-59
2023/09/24 01:43:43;;;;;;;12.90;7.03;;;10.00;99.90;;;;;;5029334;28;20515;-58
2023/09/24 01:46:09;;;;;;;12.80;5.57;;;10.00;99.90;;;;;;5029446;28;20056;-60
2023/09/24 01:48:38;;;;;;;18.65;6.47;;;10.00;99.90;;;;;;5028611;28;20104;-60
2023/09/24 01:51:07;;;;;;;10.60;5.57;;;10.00;99.90;;;;;;5016108;28;20172;-60
2023/09/24 01:53:34;;;;;;;13.98;6.05;;;10.00;99.90;;;;;;5023327;28;20475;-59
2023/09/24 01:56:06;;;;;;;11.60;4.82;;;9.90;99.90;;;;;;5018506;28;20037;-61
2023/09/24 01:58:31;;;;;;;9.38;4.22;;;9.90;99.90;;;;;;5009918;28;20045;-59
2023/09/24 02:00:57;;;;;;;7.75;4.05;;;9.90;99.90;;;;;;5024544;28;20081;-58
2023/09/24 02:03:22;;;;;;;12.52;5.63;;;9.80;99.90;;;;;;5017212;28;20117;-57
2023/09/24 02:05:48;;;;;;;8.57;4.97;;;9.80;99.90;;;;;;5022390;28;20038;-57
2023/09/24 02:08:15;;;;;;;11.75;5.32;;;9.80;99.90;;;;;;5026076;28;20033;-57
2023/09/24 02:10:41;;;;;;;12.43;5.45;;;9.80;99.90;;;;;;5021654;28;20462;-60
2023/09/24 02:13:07;;;;;;;11.98;4.57;;;9.80;99.90;;;;;;5015662;28;20076;-61
2023/09/24 02:15:34;;;;;;;14.40;4.93;;;9.70;99.90;;;;;;5024817;28;20029;-58
2023/09/24 02:18:00;;;;;;;9.43;4.13;;;9.80;99.90;;;;;;5020786;28;20721;-58
2023/09/24 02:20:31;;;;;;;8.68;4.25;;;9.80;99.90;;;;;;5023460;28;20037;-61
2023/09/24 02:22:59;;;;;;;11.98;4.15;;;9.80;99.90;;;;;;5032822;28;20080;-60
2023/09/24 02:25:27;;;;;;;6.30;4.57;;;9.70;99.90;;;;;;5019522;28;20022;-62
2023/09/24 02:27:53;;;;;;;10.07;4.60;;;9.80;99.90;;;;;;5028521;28;20034;-60
2023/09/24 02:30:20;;;;;;;5.63;3.58;;;9.80;99.90;;;;;;5020792;28;20111;-59
2023/09/24 02:32:46;;;;;;;8.63;3.83;;;9.80;99.90;;;;;;5019142;28;20026;-61
2023/09/24 02:35:16;;;;;;;7.55;3.90;;;9.80;99.90;;;;;;5023402;28;20030;-60
2023/09/24 02:37:47;;;;;;;11.30;4.28;;;9.70;99.90;;;;;;5023503;28;20037;-57
2023/09/24 02:40:23;;;;;;;8.27;3.45;;;9.70;99.90;;;;;;5024288;28;20033;-59
2023/09/24 02:42:52;;;;;;;10.95;3.97;;;9.70;99.90;;;;;;5026413;28;20034;-58
2023/09/24 02:45:18;;;;;;;14.07;4.43;;;9.70;99.90;;;;;;5026498;28;20166;-60
2023/09/24 02:47:45;;;;;;;6.57;3.45;;;9.70;99.90;;;;;;5027407;28;20638;-59
2023/09/24 02:50:14;;;;;;;9.85;3.65;;;9.70;99.90;;;;;;5022859;28;20046;-60
2023/09/24 02:52:45;;;;;;;7.28;3.83;;;9.60;99.90;;;;;;5023131;28;20039;-61
2023/09/24 02:55:13;;;;;;;9.45;3.75;;;9.60;99.90;;;;;;5023797;28;20026;-60
2023/09/24 02:57:39;;;;;;;11.60;5.10;;;9.60;99.90;;;;;;5022387;28;20040;-59
2023/09/24 03:00:15;;;;;;;15.18;4.13;;;9.50;99.90;;;;;;5030337;28;20108;-54
2023/09/24 03:02:41;;;;;;;21.00;4.28;;;9.50;99.90;;;;;;5018303;28;20088;-61
2023/09/24 03:05:10;;;;;;;11.40;4.50;;;9.50;99.90;;;;;;5028662;28;20061;-58
2023/09/24 03:07:36;;;;;;;11.10;4.18;;;9.50;99.90;;;;;;5020320;28;20109;-58
2023/09/24 03:10:06;;;;;;;9.13;4.20;;;9.50;99.90;;;;;;5025178;28;20167;-54
2023/09/24 03:12:31;;;;;;;7.32;3.65;;;9.50;99.90;;;;;;5020265;28;20030;-59
2023/09/24 03:14:57;;;;;;;12.60;3.75;;;9.50;99.90;;;;;;5024664;28;20032;-60
2023/09/24 03:17:23;;;;;;;13.65;4.18;;;9.50;99.90;;;;;;5018912;28;20040;-59
2023/09/24 03:19:48;;;;;;;11.10;3.95;;;9.40;99.90;;;;;;5031201;28;20381;-61
2023/09/24 03:22:13;;;;;;;9.40;3.45;;;9.40;99.90;;;;;;5018823;28;20038;-60
2023/09/24 03:24:39;;;;;;;9.13;3.40;;;9.40;99.90;;;;;;5021179;28;20034;-59
2023/09/24 03:27:05;;;;;;;10.52;4.03;;;9.30;99.90;;;;;;5020136;28;20057;-61
2023/09/24 03:29:31;;;;;;;13.57;4.07;;;9.30;99.90;;;;;;5029471;28;20069;-61
2023/09/24 03:31:56;;;;;;;6.25;3.45;;;9.30;99.90;;;;;;5024775;28;20498;-61
2023/09/24 03:34:22;;;;;;;7.82;3.60;;;9.30;99.90;;;;;;5022004;28;20568;-60
2023/09/24 03:36:48;;;;;;;8.70;3.50;;;9.30;99.90;;;;;;5018055;28;20040;-59
2023/09/24 03:39:13;;;;;;;7.07;3.55;;;9.20;99.90;;;;;;5021638;28;20037;-60
2023/09/24 03:41:39;;;;;;;7.18;3.50;;;9.20;99.90;;;;;;5016966;28;20117;-58
2023/09/24 03:44:05;;;;;;;8.10;3.42;;;9.20;99.90;;;;;;5025381;28;20123;-59
2023/09/24 03:46:30;;;;;;;8.52;3.22;;;9.20;99.90;;;;;;5028280;28;20087;-54
2023/09/24 03:48:56;;;;;;;5.85;3.38;;;9.20;99.90;;;;;;5026341;28;20033;-61
2023/09/24 03:51:22;;;;;;;11.05;3.47;;;9.20;99.90;;;;;;5025398;28;20021;-61
2023/09/24 03:53:47;;;;;;;9.05;3.85;;;9.10;99.90;;;;;;5025615;28;20061;-60
2023/09/24 03:56:14;;;;;;;11.88;3.60;;;9.10;99.90;;;;;;5023055;28;20472;-61
2023/09/24 03:58:39;;;;;;;6.63;2.78;;;9.10;99.90;;;;;;5015369;28;20494;-60
2023/09/24 04:01:09;;;;;;;9.38;4.10;;;9.10;99.90;;;;;;5022148;28;20034;-56
2023/09/24 04:03:36;;;;;;;5.07;2.83;;;9.00;99.90;;;;;;5023045;28;20480;-58
2023/09/24 04:06:07;;;;;;;4.47;2.78;;;9.00;99.90;;;;;;5024331;28;20025;-56
2023/09/24 04:08:33;;;;;;;8.57;3.03;;;9.10;99.90;;;;;;5024563;28;20022;-61
2023/09/24 04:10:58;;;;;;;8.23;3.28;;;9.00;99.90;;;;;;5024175;28;20033;-59
2023/09/24 04:13:24;;;;;;;8.88;3.78;;;8.90;99.90;;;;;;5020476;28;20025;-59
2023/09/24 04:15:52;;;;;;;9.30;2.78;;;9.00;99.90;;;;;;5022806;28;20033;-61
2023/09/24 04:18:18;;;;;;;7.55;3.00;;;8.90;99.90;;;;;;5023603;28;20507;-58
2023/09/24 04:20:44;;;;;;;4.45;2.70;;;8.90;99.90;;;;;;5028548;28;20033;-60
2023/09/24 04:23:11;;;;;;;9.10;3.22;;;8.90;99.90;;;;;;5019422;28;20115;-58
2023/09/24 04:25:37;;;;;;;4.97;3.08;;;8.90;99.90;;;;;;5023606;28;20392;-60
2023/09/24 04:28:03;;;;;;;10.15;3.33;;;8.80;99.90;;;;;;5024566;28;20034;-59
2023/09/24 04:30:29;;;;;;;10.15;2.80;;;8.90;99.90;;;;;;5036967;28;20021;-57
2023/09/24 04:32:56;;;;;;;7.05;3.30;;;8.80;99.90;;;;;;5026692;28;20149;-57
2023/09/24 04:35:22;;;;;;;7.70;3.50;;;8.80;99.90;;;;;;5029762;28;20036;-60
2023/09/24 04:37:50;;;;;;;9.02;3.50;;;8.80;99.90;;;;;;5030074;28;20116;-60
2023/09/24 04:40:15;;;;;;;10.40;3.65;;;8.70;99.90;;;;;;5034232;28;20041;-57
2023/09/24 04:42:42;;;;;;;9.77;3.25;;;8.70;99.90;;;;;;5030466;28;20037;-60
2023/09/24 04:45:11;;;;;;;6.50;3.03;;;8.70;99.90;;;;;;5026802;28;20109;-58
2023/09/24 04:47:41;;;;;;;10.38;3.13;;;8.70;99.90;;;;;;5023175;28;20072;-61
2023/09/24 04:50:07;;;;;;;5.93;2.92;;;8.60;99.90;;;;;;5025812;28;20029;-59
2023/09/24 04:52:34;;;;;;;6.25;3.10;;;8.60;99.90;;;;;;5026150;28;20104;-60
2023/09/24 04:55:00;;;;;;;9.13;2.83;;;8.60;99.90;;;;;;5022093;28;20547;-58
2023/09/24 04:57:25;;;;;;;4.63;3.05;;;8.60;99.90;;;;;;5025133;28;20033;-61
2023/09/24 04:59:53;;;;;;;6.60;2.42;;;8.60;99.90;;;;;;5018501;28;20026;-59
2023/09/24 05:02:21;;;;;;;11.65;3.13;;;8.60;99.90;;;;;;5026397;28;20404;-56
2023/09/24 05:04:49;;;;;;;5.15;2.97;;;8.60;99.90;;;;;;5028732;28;20022;-57
2023/09/24 05:07:15;;;;;;;11.52;3.13;;;8.50;99.90;;;;;;5026905;28;20084;-61
2023/09/24 05:09:41;;;;;;;7.85;2.85;;;8.60;99.90;;;;;;5019838;28;20030;-59
2023/09/24 05:12:06;;;;;;;6.50;3.38;;;8.50;99.90;;;;;;5026068;28;20041;-61
2023/09/24 05:14:32;;;;;;;12.57;5.20;;;8.60;99.90;;;;;;5021257;28;20090;-60
2023/09/24 05:16:58;;;;;;;10.23;4.13;;;8.60;99.90;;;;;;5026343;28;20041;-59
2023/09/24 05:19:24;;;;;;;7.03;2.65;;;8.60;99.90;;;;;;5020284;28;20364;-58
2023/09/24 05:21:49;;;;;;;10.40;3.08;;;8.60;99.90;;;;;;5024792;28;20039;-58
2023/09/24 05:24:15;;;;;;;10.98;3.40;;;8.60;99.90;;;;;;5021247;28;20512;-60
2023/09/24 05:26:40;;;;;;;6.28;3.13;;;8.60;99.90;;;;;;5028470;28;20058;-58
2023/09/24 05:29:06;;;;;;;14.23;3.22;;;8.60;99.90;;;;;;5025299;28;20029;-59
2023/09/24 05:31:32;;;;;;;6.47;2.80;;;8.50;99.90;;;;;;5021506;28;20025;-57
2023/09/24 05:33:57;;;;;;;7.15;3.08;;;8.60;99.90;;;;;;5018521;28;20049;-59
2023/09/24 05:36:23;;;;;;;7.18;2.97;;;8.50;99.90;;;;;;5022929;28;20498;-59
2023/09/24 05:38:49;;;;;;;7.35;3.85;;;8.60;99.90;;;;;;5017169;28;20068;-58
2023/09/24 05:41:16;;;;;;;6.28;3.17;;;8.60;99.90;;;;;;5024628;28;20057;-57
2023/09/24 05:43:44;;;;;;;9.13;3.70;;;8.60;99.90;;;;;;5021058;28;20032;-56
2023/09/24 05:46:11;;;;;;;8.50;2.80;;;8.60;99.90;;;;;;5025083;28;20065;-59
2023/09/24 05:48:37;;;;;;;5.63;3.45;;;8.70;99.90;;;;;;5025203;28;20017;-58
2023/09/24 05:51:04;;;;;;;6.70;3.33;;;8.70;99.90;;;;;;5019353;28;20036;-60
2023/09/24 05:53:30;;;;;;;11.15;3.58;;;8.80;99.90;;;;;;5024264;28;20499;-59
2023/09/24 05:55:55;;;;;;;10.00;3.88;;;8.80;99.90;;;;;;5019621;28;20017;-58
2023/09/24 05:58:21;;;;;;;8.68;3.50;;;8.80;99.90;;;;;;5015961;28;20597;-55
2023/09/24 06:00:47;;;;;;;9.15;3.47;;;8.90;99.90;;;;;;5010199;28;20033;-59
2023/09/24 06:03:15;;;;;;;7.20;3.97;;;8.90;99.90;;;;;;5020859;28;20116;-59
2023/09/24 06:05:41;;;;;;;5.57;3.28;;;9.00;99.90;;;;;;5023179;28;20025;-56
2023/09/24 06:08:07;;;;;;;6.57;3.95;;;9.00;99.90;;;;;;5024881;28;20048;-56
2023/09/24 06:10:34;;;;;;;4.00;3.10;;;9.00;99.90;;;;;;5020457;28;20061;-59
2023/09/24 06:13:01;;;;;;;7.72;3.10;;;9.00;99.90;;;;;;5019963;28;20018;-59
2023/09/24 06:15:26;;;;;;;11.70;3.63;;;9.10;99.90;;;;;;5024645;28;20049;-60
2023/09/24 06:17:52;;;;;;;4.40;3.13;;;9.10;99.90;;;;;;5025162;28;20122;-61
2023/09/24 06:20:17;;;;;;;7.45;3.10;;;9.20;99.90;;;;;;5022100;28;20078;-59
2023/09/24 06:22:45;;;;;;;6.55;3.90;;;9.20;99.90;;;;;;5025894;28;20082;-59
2023/09/24 06:25:12;;;;;;;6.15;3.40;;;9.30;99.90;;;;;;5017378;28;20598;-61
2023/09/24 06:27:40;;;;;;;4.75;3.03;;;9.40;99.90;;;;;;5019050;28;20032;-57
2023/09/24 06:30:08;;;;;;;8.95;4.38;;;9.40;99.90;;;;;;5025102;28;20025;-59
2023/09/24 06:32:35;;;;;;;11.43;3.97;;;9.40;99.90;;;;;;5024922;28;20079;-59
2023/09/24 06:35:00;;;;;;;8.15;3.78;;;9.50;99.90;;;;;;5015345;28;20029;-59
2023/09/24 06:37:26;;;;;;;8.40;3.90;;;9.60;99.90;;;;;;5021925;28;20034;-59
2023/09/24 06:39:52;;;;;;;5.20;3.60;;;9.60;99.90;;;;;;5021056;28;20041;-57
2023/09/24 06:42:17;;;;;;;9.07;4.20;;;9.70;99.90;;;;;;5027967;28;20026;-58
2023/09/24 06:44:44;;;;;;;8.93;4.22;;;9.80;99.90;;;;;;5021708;28;20044;-58
2023/09/24 06:47:10;;;;;;;9.82;4.95;;;9.90;99.90;;;;;;5018392;28;20108;-58
2023/09/24 06:49:35;;;;;;;16.10;5.40;;;10.00;99.90;;;;;;5025092;28;20128;-61
2023/09/24 06:52:01;;;;;;;10.68;5.30;;;10.00;99.90;;;;;;5017403;28;20029;-60
2023/09/24 06:54:27;;;;;;;6.57;4.47;;;10.20;99.90;;;;;;5019699;28;20152;-61
2023/09/24 06:56:52;;;;;;;8.30;4.50;;;10.30;99.90;;;;;;5022741;28;20497;-59
2023/09/24 06:59:18;;;;;;;6.65;4.78;;;10.30;99.90;;;;;;5019193;28;20026;-60
2023/09/24 07:01:43;;;;;;;7.75;5.40;;;10.30;99.90;;;;;;5019694;28;20026;-59
2023/09/24 07:04:09;;;;;;;8.60;5.07;;;10.40;99.90;;;;;;5021814;28;20492;-59
2023/09/24 07:06:34;;;;;;;9.18;5.07;;;10.50;99.90;;;;;;5024264;28;20033;-62
2023/09/24 07:09:00;;;;;;;11.85;5.60;;;10.60;99.90;;;;;;5024776;28;20040;-59
2023/09/24 07:11:37;;;;;;;7.28;4.63;;;10.60;99.90;;;;;;5021522;28;20014;-60
2023/09/24 07:14:06;;;;;;;9.57;5.10;;;10.70;99.90;;;;;;5019798;28;20022;-57
2023/09/24 07:16:32;;;;;;;6.95;4.80;;;10.80;99.90;;;;;;5022930;28;20434;-60
2023/09/24 07:18:58;;;;;;;9.13;4.97;;;10.90;99.90;;;;;;5020663;28;20018;-57
2023/09/24 07:21:26;;;;;;;8.20;4.75;;;11.00;99.90;;;;;;5017975;28;20494;-60
2023/09/24 07:23:56;;;;;;;14.30;5.15;;;11.00;99.90;;;;;;5020496;28;20022;-61
2023/09/24 07:26:25;;;;;;;15.93;7.53;;;11.10;99.90;;;;;;5022729;28;20056;-61
2023/09/24 07:28:52;;;;;;;10.43;5.90;;;11.20;99.90;;;;;;5025280;28;20112;-60
2023/09/24 07:31:21;;;;;;;9.73;5.35;;;11.20;99.90;;;;;;5023483;28;20486;-60
2023/09/24 07:33:47;;;;;;;9.93;4.82;;;11.30;99.90;;;;;;5021222;28;20025;-59
2023/09/24 07:36:13;;;;;;;8.93;5.63;;;11.40;99.90;;;;;;5024666;28;20391;-58
2023/09/24 07:38:40;;;;;;;10.43;5.32;;;11.50;99.90;;;;;;5019417;28;20034;-57
2023/09/24 07:41:07;;;;;;;7.82;5.10;;;11.50;99.90;;;;;;5019282;28;20025;-59
2023/09/24 07:43:34;;;;;;;12.57;5.97;;;11.60;99.90;;;;;;5024458;28;20025;-60
2023/09/24 07:46:00;;;;;;;12.23;5.15;;;11.70;99.90;;;;;;5017305;28;20030;-59
2023/09/24 07:48:25;;;;;;;12.57;5.55;;;11.80;99.90;;;;;;5020393;28;20030;-60
2023/09/24 07:50:54;;;;;;;7.90;4.78;;;11.90;99.90;;;;;;5021169;28;20024;-61
2023/09/24 07:53:22;;;;;;;11.23;4.88;;;11.90;99.90;;;;;;5022770;28;20021;-59
2023/09/24 07:56:03;;;;;;;9.63;4.72;;;12.00;99.90;;;;;;5022963;28;20426;-58
2023/09/24 07:58:30;;;;;;;7.00;4.18;;;12.10;99.90;;;;;;5016610;28;20103;-56
2023/09/24 08:01:01;;;;;;;8.60;4.43;;;12.20;99.90;;;;;;5017882;28;20037;-58
2023/09/24 08:03:27;;;;;;;9.25;4.63;;;12.20;99.90;;;;;;5024419;28;20513;-58
2023/09/24 08:05:52;;;;;;;10.85;4.65;;;12.30;99.90;;;;;;5023181;28;20026;-59
2023/09/24 08:08:18;;;;;;;10.90;4.35;;;12.40;99.90;;;;;;5017464;28;20377;-59
2023/09/24 08:10:43;;;;;;;11.27;4.13;;;12.50;99.90;;;;;;5018455;28;20562;-59
2023/09/24 08:13:09;;;;;;;7.95;4.03;;;12.60;99.90;;;;;;5019617;28;20037;-58
2023/09/24 08:15:35;;;;;;;6.78;3.83;;;12.70;99.90;;;;;;5020965;28;20073;-60
2023/09/24 08:18:02;;;;;;;10.68;4.10;;;12.80;99.90;;;;;;5020624;28;20038;-57
2023/09/24 08:20:28;;;;;;;8.70;3.58;;;12.90;99.90;;;;;;5017266;28;20049;-58
2023/09/24 08:22:53;;;;;;;6.55;3.20;;;13.00;99.90;;;;;;5017692;28;20033;-57
2023/09/24 08:25:19;;;;;;;7.03;3.20;;;13.10;99.90;;;;;;5017067;28;20499;-55
2023/09/24 08:27:45;;;;;;;6.20;2.78;;;13.20;99.90;;;;;;5013374;28;20033;-59
2023/09/24 08:30:11;;;;;;;11.82;3.10;;;13.30;99.90;;;;;;5018949;28;20120;-59
2023/09/24 08:32:36;;;;;;;7.15;2.90;;;13.40;99.90;;;;;;5019170;28;20037;-59
2023/09/24 08:35:02;;;;;;;6.00;2.17;;;13.60;99.90;;;;;;5017289;28;20049;-57
2023/09/24 08:37:28;;;;;;;5.68;3.05;;;13.60;99.90;;;;;;5014049;28;20041;-56
2023/09/24 08:39:53;;;;;;;9.27;2.83;;;13.70;99.90;;;;;;5014932;28;20037;-57
2023/09/24 08:42:19;;;;;;;8.02;2.33;;;13.80;99.90;;;;;;5014823;28;20033;-58
2023/09/24 08:44:56;;;;;;;5.82;2.55;;;14.00;99.90;;;;;;5016474;28;20047;-59
2023/09/24 08:47:23;;;;;;;7.22;2.85;;;14.00;99.90;;;;;;5011958;28;20022;-60
2023/09/24 08:49:50;;;;;;;5.57;2.63;;;14.20;99.90;;;;;;5014935;28;20060;-59
2023/09/24 08:52:18;;;;;;;5.80;2.60;;;14.20;99.90;;;;;;5014103;28;20026;-59
2023/09/24 08:54:45;;;;;;;9.77;2.83;;;14.30;99.90;;;;;;5012148;28;20069;-60
2023/09/24 08:57:11;;;;;;;5.55;2.42;;;14.40;99.90;;;;;;5008119;28;20034;-60
2023/09/24 08:59:36;;;;;;;4.57;2.70;;;14.50;99.90;;;;;;5018303;28;20040;-60
2023/09/24 09:02:02;;;;;;;9.48;3.22;;;14.60;99.90;;;;;;5015784;28;20029;-55
2023/09/24 09:04:28;;;;;;;6.20;2.75;;;14.70;99.90;;;;;;5018025;28;20073;-59
2023/09/24 09:06:57;;;;;;;3.60;2.08;;;14.80;99.90;;;;;;5016840;28;20026;-60
2023/09/24 09:09:24;;;;;;;5.07;1.73;;;14.90;99.90;;;;;;5017649;28;20021;-59
2023/09/24 09:11:50;;;;;;;6.28;2.15;;;15.00;99.90;;;;;;5013253;28;20078;-60
2023/09/24 09:14:15;;;;;;;5.75;2.30;;;15.10;99.90;;;;;;5013727;28;20394;-56
2023/09/24 09:16:57;;;;;;;4.18;1.90;;;15.20;99.90;;;;;;5021174;28;20034;-61
2023/09/24 09:19:23;;;;;;;3.95;1.42;;;15.30;99.90;;;;;;5013111;28;20032;-58
2023/09/24 09:21:48;;;;;;;8.40;2.40;;;15.40;99.90;;;;;;5014026;28;20029;-60
2023/09/24 09:24:24;;;;;;;7.30;1.80;;;15.50;99.90;;;;;;5016927;28;20503;-60
2023/09/24 09:26:56;;;;;;;3.58;1.60;;;15.60;99.90;;;;;;5016601;28;20075;-60
2023/09/24 09:29:27;;;;;;;4.65;1.80;;;15.70;99.90;;;;;;5014743;28;20087;-57
2023/09/24 09:31:54;;;;;;;3.28;1.67;;;15.80;99.90;;;;;;5030703;28;20021;-58
2023/09/24 09:34:20;;;;;;;6.38;1.88;;;16.00;99.90;;;;;;5015350;28;20032;-59
2023/09/24 09:36:46;;;;;;;6.35;1.67;;;16.10;99.90;;;;;;5017435;28;20030;-60
2023/09/24 09:39:12;;;;;;;6.97;2.00;;;16.30;99.90;;;;;;5012149;28;20033;-58
2023/09/24 09:41:42;;;;;;;4.63;1.83;;;16.40;99.90;;;;;;5017593;28;20030;-59
2023/09/24 09:44:08;;;;;;;3.65;1.63;;;16.60;99.90;;;;;;5016843;28;20038;-56
2023/09/24 09:46:35;;;;;;;5.15;1.50;;;16.70;99.90;;;;;;5015925;28;20084;-59
2023/09/24 09:49:02;;;;;;;3.35;1.35;;;16.90;99.90;;;;;;5012079;28;20032;-58
2023/09/24 09:51:34;;;;;;;5.40;1.58;;;17.10;99.90;;;;;;5013612;28;20116;-60
2023/09/24 09:54:06;;;;;;;3.47;1.42;;;17.20;99.90;;;;;;5013066;28;20033;-58
2023/09/24 09:56:35;;;;;;;4.20;1.50;;;17.40;99.90;;;;;;5019414;28;20021;-58
2023/09/24 09:59:02;;;;;;;7.70;2.15;;;17.40;99.90;;;;;;5010372;28;20025;-59
2023/09/24 10:01:28;;;;;;;5.03;1.60;;;17.70;99.90;;;;;;5015761;28;20026;-58
2023/09/24 10:03:55;;;;;;;6.85;1.50;;;17.70;99.90;;;;;;5011123;28;20032;-60
2023/09/24 10:06:22;;;;;;;7.70;2.00;;;17.80;99.90;;;;;;5010551;28;20077;-60
2023/09/24 10:08:48;;;;;;;5.40;1.70;;;18.00;99.90;;;;;;5016638;28;20120;-58
2023/09/24 10:11:32;;;;;;;4.95;1.40;;;18.20;99.90;;;;;;5021847;28;20113;-58
2023/09/24 10:14:05;;;;;;;2.70;1.52;;;18.30;99.90;;;;;;5012316;28;20029;-57
2023/09/24 10:16:37;;;;;;;3.08;1.30;;;18.50;99.90;;;;;;5018893;28;20022;-59
2023/09/24 10:19:06;;;;;;;3.70;1.15;;;18.70;99.90;;;;;;5019365;28;20121;-58
2023/09/24 10:21:43;;;;;;;4.75;1.20;;;18.80;99.90;;;;;;5014959;28;20042;-59
2023/09/24 10:24:12;;;;;;;4.75;1.27;;;19.00;99.90;;;;;;5014704;28;20105;-60
2023/09/24 10:27:03;;;;;;;2.85;0.93;;;19.10;99.90;;;;;;5014043;28;20026;-55
2023/09/24 10:29:53;;;;;;;5.47;1.15;;;19.30;99.90;;;;;;5019844;28;20057;-60
2023/09/24 10:32:23;;;;;;;5.32;1.30;;;19.30;99.90;;;;;;5017961;28;20037;-60
2023/09/24 10:34:51;;;;;;;4.25;2.30;;;19.30;99.90;;;;;;5017348;28;20415;-60
2023/09/24 10:37:18;;;;;;;5.53;1.33;;;19.40;99.90;;;;;;5023877;28;20068;-60
2023/09/24 10:40:14;;;;;;;3.92;1.17;;;19.40;99.90;;;;;;5016658;28;20040;-59
2023/09/24 10:42:44;;;;;;;5.63;1.20;;;19.60;99.90;;;;;;5022790;28;20156;-60
2023/09/24 10:45:10;;;;;;;5.03;1.35;;;19.60;99.90;;;;;;5021872;28;20041;-60
2023/09/24 10:47:43;;;;;;;3.22;0.93;;;19.70;99.90;;;;;;5010513;28;20029;-61
2023/09/24 10:50:10;;;;;;;3.75;1.20;;;19.90;99.90;;;;;;5016052;28;20074;-61
2023/09/24 10:52:55;;;;;;;6.15;1.33;;;20.00;99.90;;;;;;5019475;28;20045;-60
2023/09/24 10:55:27;;;;;;;6.32;1.20;;;20.10;99.90;;;;;;5019742;28;20029;-60
2023/09/24 10:57:54;;;;;;;3.50;1.48;;;20.20;99.90;;;;;;5018413;28;20080;-59
2023/09/24 11:00:21;;;;;;;2.30;1.20;;;20.30;99.90;;;;;;5026047;28;20053;-59
2023/09/24 11:03:02;;;;;;;4.15;1.00;;;20.30;99.90;;;;;;5022332;28;20013;-57
2023/09/24 11:05:29;;;;;;;9.82;1.10;;;20.30;99.90;;;;;;5026615;28;20028;-61
2023/09/24 11:07:55;;;;;;;2.33;0.75;;;20.50;99.90;;;;;;5018951;28;20028;-60
2023/09/24 11:10:23;;;;;;;3.85;0.95;;;20.80;99.90;;;;;;5023428;28;20026;-61
2023/09/24 11:12:54;;;;;;;6.00;0.88;;;20.80;99.90;;;;;;5019270;28;20549;-59
2023/09/24 11:15:23;;;;;;;2.08;0.95;;;21.00;99.90;;;;;;5022027;28;20061;-60
2023/09/24 11:17:50;;;;;;;4.38;1.02;;;21.00;99.90;;;;;;5024516;28;20037;-58
2023/09/24 11:20:17;;;;;;;6.60;0.98;;;21.10;99.90;;;;;;5020275;28;20021;-60
2023/09/24 11:22:43;;;;;;;4.72;1.05;;;21.20;99.90;;;;;;5030333;28;20088;-61
2023/09/24 11:25:10;;;;;;;2.38;0.90;;;21.40;99.90;;;;;;5024558;28;20103;-61
2023/09/24 11:27:50;;;;;;;4.13;1.10;;;21.00;99.90;;;;;;5028093;28;20057;-61
2023/09/24 11:30:18;;;;;;;3.53;1.00;;;21.00;99.90;;;;;;5017358;28;20029;-60
2023/09/24 11:32:48;;;;;;;2.85;1.05;;;21.30;99.90;;;;;;5016574;28;20017;-59
2023/09/24 11:35:16;;;;;;;2.22;0.95;;;21.70;99.90;;;;;;5020997;28;20025;-61
2023/09/24 11:37:50;;;;;;;3.17;0.93;;;22.00;99.90;;;;;;5016047;28;20518;-60
2023/09/24 11:40:34;;;;;;;2.25;1.00;;;22.10;99.90;;;;;;5016017;28;20043;-61
2023/09/24 11:43:05;;;;;;;2.95;1.10;;;22.20;99.90;;;;;;5019253;28;20029;-58
2023/09/24 11:45:46;;;;;;;3.72;0.90;;;22.20;99.90;;;;;;5019227;28;20108;-61
2023/09/24 11:48:27;;;;;;;2.30;1.10;;;22.40;99.90;;;;;;5017217;28;20037;-61
2023/09/24 11:51:00;;;;;;;3.03;1.00;;;22.10;99.90;;;;;;5018813;28;20484;-57
2023/09/24 11:53:26;;;;;;;2.72;1.00;;;22.30;99.90;;;;;;5023956;28;20064;-58
2023/09/24 11:55:56;;;;;;;5.97;0.90;;;22.70;99.90;;;;;;5026515;28;20064;-58
2023/09/24 11:58:26;;;;;;;7.50;0.88;;;22.80;99.90;;;;;;5021582;28;20040;-60
2023/09/24 12:00:52;;;;;;;7.68;1.00;;;22.80;99.90;;;;;;5024288;28;20574;-60
2023/09/24 12:03:20;;;;;;;1.23;1.08;;;23.10;99.90;;;;;;5021700;28;20079;-57
2023/09/24 12:05:46;;;;;;;3.47;0.75;;;23.30;99.90;;;;;;5019626;28;20514;-59
2023/09/24 12:08:12;;;;;;;2.85;1.00;;;23.20;99.90;;;;;;5016843;28;20029;-59
2023/09/24 12:10:40;;;;;;;2.95;1.00;;;23.20;99.90;;;;;;5018257;28;20041;-60
2023/09/24 12:13:09;;;;;;;2.33;1.00;;;23.40;99.90;;;;;;5022085;28;20021;-59
2023/09/24 12:15:36;;;;;;;2.42;1.20;;;23.20;99.90;;;;;;5024855;28;20033;-61
2023/09/24 12:18:04;;;;;;;3.55;1.35;;;23.30;99.90;;;;;;5020585;28;20558;-58
2023/09/24 12:20:34;;;;;;;3.78;1.30;;;22.90;99.90;;;;;;5018048;28;20030;-59
2023/09/24 12:23:01;;;;;;;5.22;0.85;;;23.00;99.90;;;;;;5017184;28;20068;-57
2023/09/24 12:25:28;;;;;;;2.72;1.05;;;22.90;99.90;;;;;;5025285;28;20526;-58
2023/09/24 12:27:54;;;;;;;5.95;1.30;;;23.40;99.90;;;;;;5025341;28;20059;-55
2023/09/24 12:30:20;;;;;;;4.80;0.98;;;23.20;99.90;;;;;;5022658;28;20180;-60
2023/09/24 12:32:46;;;;;;;3.10;1.10;;;23.00;99.90;;;;;;5019813;28;20548;-60
2023/09/24 12:35:11;;;;;;;2.38;1.30;;;23.20;99.90;;;;;;5023864;28;20119;-61
2023/09/24 12:37:38;;;;;;;3.63;0.90;;;23.60;99.90;;;;;;5021168;28;20038;-61
2023/09/24 12:40:07;;;;;;;3.92;1.00;;;23.60;99.90;;;;;;5017101;28;20492;-60
2023/09/24 12:42:38;;;;;;;5.20;0.85;;;23.50;99.90;;;;;;5019553;28;20113;-60
2023/09/24 12:45:06;;;;;;;1.90;0.88;;;23.80;99.90;;;;;;5026411;28;20034;-60
2023/09/24 12:47:33;;;;;;;3.60;1.10;;;23.70;99.90;;;;;;5021151;28;20492;-60
2023/09/24 12:50:00;;;;;;;3.53;1.08;;;24.20;99.90;;;;;;5018571;28;20038;-61